Time;durP1;ratioP1;P1;durP2;ratioP2;P2;SDS_P1;SDS_P2;PMS_P1;PMS_P2;Temp;Humidity;BMP_temperature;BMP_pressure;BME280_temperature;BME280_humidity;BME280_pressure;Samples;Min_cycle;Max_cycle;Signal;HPM_P1;HPM_P2
2020/02/25 00:00:53;;;;;;;1.4;1;;;;;;;10.47;62.66504;952.4789;;;;
2020/02/25 00:03:18;;;;;;;1.1;1;;;;;;;10.4;63.54004;952.4366;;;;
2020/02/25 00:05:43;;;;;;;2.9;1;;;;;;;10.47;63.7793;952.4256;;;;
2020/02/25 00:08:09;;;;;;;2.1;0.9;;;;;;;10.37;64.2959;952.4119;;;;
2020/02/25 00:10:34;;;;;;;1.3;0.9;;;;;;;10.39;64.06738;952.3674;;;;
2020/02/25 00:12:59;;;;;;;1.1;0.9;;;;;;;10.37;63.45508;952.3069;;;;
2020/02/25 00:15:24;;;;;;;1.5;1.1;;;;;;;10.44;62.60254;952.3027;;;;
2020/02/25 00:17:49;;;;;;;1.2;1;;;;;;;10.37;63.85938;952.2767;;;;
2020/02/25 00:20:15;;;;;;;1.2;1.1;;;;;;;10.43;62.86621;952.2845;;;;
2020/02/25 00:22:40;;;;;;;2;1.1;;;;;;;10.34;63.64648;952.2488;;;;
2020/02/25 00:27:33;;;;;;;1.3;0.8;;;;;;;10.49;62.3916;952.1888;;;;
2020/02/25 00:29:55;;;;;;;1.2;0.9;;;;;;;10.38;62.53613;952.1687;;;;
2020/02/25 00:32:20;;;;;;;2.5;1;;;;;;;10.35;63.62402;952.072;;;;
2020/02/25 00:34:45;;;;;;;3.2;1.1;;;;;;;10.28;63.77441;952.0569;;;;
2020/02/25 00:37:11;;;;;;;1.7;0.9;;;;;;;10.32;62.92969;952.0027;;;;
2020/02/25 00:39:36;;;;;;;1.6;1;;;;;;;10.32;63.22852;951.9439;;;;
2020/02/25 00:42:02;;;;;;;1.9;1;;;;;;;10.2;64.76465;951.9316;;;;
2020/02/25 00:44:27;;;;;;;1.8;1.2;;;;;;;10.28;63.7998;951.8624;;;;
2020/02/25 00:46:53;;;;;;;1.5;1.1;;;;;;;10.21;64.81152;951.856;;;;
2020/02/25 00:49:18;;;;;;;1.2;1;;;;;;;10.27;63.82031;951.7858;;;;
2020/02/25 00:51:44;;;;;;;1.1;0.9;;;;;;;10.32;63.64453;951.7529;;;;
2020/02/25 00:54:09;;;;;;;2.2;0.9;;;;;;;10.36;63.37207;951.6985;;;;
2020/02/25 00:56:34;;;;;;;2.3;1;;;;;;;10.25;64.48438;951.6981;;;;
2020/02/25 00:58:59;;;;;;;1.4;1;;;;;;;10.25;64.4375;951.6436;;;;
2020/02/25 01:01:25;;;;;;;1.4;1.1;;;;;;;10.24;64.58594;951.5817;;;;
2020/02/25 01:03:50;;;;;;;1.5;1;;;;;;;10.23;64.21582;951.5525;;;;
2020/02/25 01:06:15;;;;;;;1.7;0.9;;;;;;;10.23;64.28418;951.4919;;;;
2020/02/25 01:08:40;;;;;;;1.6;1.1;;;;;;;10.14;65.30762;951.4476;;;;
2020/02/25 01:11:05;;;;;;;1.7;1;;;;;;;10.27;63.98145;951.3331;;;;
2020/02/25 01:13:30;;;;;;;1.5;1.1;;;;;;;10.24;64.11523;951.3228;;;;
2020/02/25 01:15:56;;;;;;;1.8;1.1;;;;;;;10.29;64.05273;951.243;;;;
2020/02/25 01:18:21;;;;;;;1.4;1;;;;;;;10.19;64.74023;951.1408;;;;
2020/02/25 01:20:47;;;;;;;3;1.3;;;;;;;10.18;64.99121;951.149;;;;
2020/02/25 01:23:12;;;;;;;1.7;1.1;;;;;;;10.25;64.54102;951.1461;;;;
2020/02/25 01:25:37;;;;;;;2;1.1;;;;;;;10.23;64.98535;951.1158;;;;
2020/02/25 01:28:03;;;;;;;2.4;1.1;;;;;;;10.16;65.31055;951.0876;;;;
2020/02/25 01:30:31;;;;;;;1;0.9;;;;;;;10.2;64.74121;951.0524;;;;
2020/02/25 01:32:53;;;;;;;2.1;1.1;;;;;;;10.12;65.77539;951.0094;;;;
2020/02/25 01:35:18;;;;;;;1.6;1.1;;;;;;;10.24;64.94238;950.9613;;;;
2020/02/25 01:37:44;;;;;;;2;0.9;;;;;;;10.26;64.57715;950.9042;;;;
2020/02/25 01:40:09;;;;;;;1.3;1.1;;;;;;;10.22;64.49121;950.9114;;;;
2020/02/25 01:42:34;;;;;;;1.3;1;;;;;;;10.23;64.81543;950.8904;;;;
2020/02/25 01:45:00;;;;;;;1.3;1;;;;;;;10.3;63.8584;950.9099;;;;
2020/02/25 01:47:25;;;;;;;1.5;1.1;;;;;;;10.28;64.83398;950.8656;;;;
2020/02/25 01:49:50;;;;;;;1.6;1.1;;;;;;;10.4;63.5166;950.8273;;;;
2020/02/25 01:52:15;;;;;;;1.9;0.9;;;;;;;10.34;63.31348;950.835;;;;
2020/02/25 01:54:40;;;;;;;1.8;1.1;;;;;;;10.37;63.06543;950.7651;;;;
2020/02/25 01:57:05;;;;;;;1.3;1;;;;;;;10.3;63.59375;950.6965;;;;
2020/02/25 01:59:31;;;;;;;1.3;0.9;;;;;;;10.3;63.84766;950.6859;;;;
2020/02/25 02:01:56;;;;;;;1.4;1;;;;;;;10.34;62.87598;950.6738;;;;
2020/02/25 02:04:22;;;;;;;1.3;0.9;;;;;;;10.22;63.59375;950.6395;;;;
2020/02/25 02:06:47;;;;;;;1.3;0.9;;;;;;;10.23;63.8125;950.5898;;;;
2020/02/25 02:09:12;;;;;;;1.3;0.9;;;;;;;10.18;63.74805;950.5499;;;;
2020/02/25 02:11:37;;;;;;;1.8;0.9;;;;;;;10.15;64.3418;950.5187;;;;
2020/02/25 02:14:02;;;;;;;1.1;0.9;;;;;;;10.1;64.35742;950.5134;;;;
2020/02/25 02:16:28;;;;;;;1.5;1;;;;;;;10.14;64.00781;950.5151;;;;
2020/02/25 02:18:53;;;;;;;1.8;0.8;;;;;;;10.07;64.23828;950.4913;;;;
2020/02/25 02:21:18;;;;;;;3.2;1.1;;;;;;;10.03;64.15332;950.4496;;;;
2020/02/25 02:23:43;;;;;;;1.8;0.9;;;;;;;10.11;63.4502;950.4483;;;;
2020/02/25 02:28:34;;;;;;;1.7;0.9;;;;;;;10.02;64.39258;950.3308;;;;
2020/02/25 02:31:00;;;;;;;1.1;0.6;;;;;;;9.97;64.67188;950.2914;;;;
2020/02/25 02:33:24;;;;;;;1.1;0.9;;;;;;;9.9;64.95996;950.2614;;;;
2020/02/25 02:35:49;;;;;;;2.4;0.9;;;;;;;9.9;64.10938;950.2289;;;;
2020/02/25 02:38:14;;;;;;;1.3;1;;;;;;;9.79;65.36719;950.1852;;;;
2020/02/25 02:40:40;;;;;;;0.9;0.8;;;;;;;9.8;64.80859;950.1274;;;;
2020/02/25 02:43:05;;;;;;;0.9;0.7;;;;;;;9.73;66.10547;950.088;;;;
2020/02/25 02:45:31;;;;;;;1.8;0.8;;;;;;;9.79;65.00098;950.0599;;;;
2020/02/25 02:47:56;;;;;;;1;0.8;;;;;;;9.65;65.69141;950.089;;;;
2020/02/25 02:50:21;;;;;;;1.5;1;;;;;;;9.61;65.69727;950.0466;;;;
2020/02/25 02:52:46;;;;;;;1.5;0.8;;;;;;;9.57;65.70313;950.0134;;;;
2020/02/25 02:55:11;;;;;;;0.8;0.7;;;;;;;9.51;66.37109;949.9611;;;;
2020/02/25 02:57:36;;;;;;;1.3;1;;;;;;;9.51;66.21094;949.932;;;;
2020/02/25 03:00:01;;;;;;;1;0.9;;;;;;;9.51;65.85449;949.9081;;;;
2020/02/25 03:02:26;;;;;;;1.7;0.9;;;;;;;9.43;66.16406;949.8948;;;;
2020/02/25 03:04:52;;;;;;;2.5;1;;;;;;;9.41;67.25195;949.8588;;;;
2020/02/25 03:07:17;;;;;;;1.9;1;;;;;;;9.44;65.99316;949.8883;;;;
2020/02/25 03:09:43;;;;;;;1.8;0.8;;;;;;;9.43;66.48535;949.8313;;;;
2020/02/25 03:12:08;;;;;;;2;0.9;;;;;;;9.4;66.13574;949.8384;;;;
2020/02/25 03:14:33;;;;;;;1.5;1;;;;;;;9.43;66.47266;949.8469;;;;
2020/02/25 03:16:58;;;;;;;1.4;0.9;;;;;;;9.46;66.36328;949.7966;;;;
2020/02/25 03:19:23;;;;;;;1.3;0.8;;;;;;;9.51;66.61133;949.8253;;;;
2020/02/25 03:21:49;;;;;;;1.6;0.8;;;;;;;9.44;66.60156;949.7524;;;;
2020/02/25 03:24:14;;;;;;;1.5;1;;;;;;;9.4;68.13281;949.7612;;;;
2020/02/25 03:26:40;;;;;;;1.2;0.9;;;;;;;9.46;66.36328;949.7567;;;;
2020/02/25 03:29:05;;;;;;;1.5;1;;;;;;;9.4;67.06543;949.7441;;;;
2020/02/25 03:31:30;;;;;;;1;0.9;;;;;;;9.42;66.35645;949.7067;;;;
2020/02/25 03:33:55;;;;;;;1.4;0.9;;;;;;;9.42;66.48438;949.6623;;;;
2020/02/25 03:36:20;;;;;;;1.5;0.9;;;;;;;9.5;66.56348;949.6439;;;;
2020/02/25 03:38:45;;;;;;;1.2;1.1;;;;;;;9.52;66.90137;949.6465;;;;
2020/02/25 03:41:11;;;;;;;1.8;1;;;;;;;9.48;66.6543;949.6398;;;;
2020/02/25 03:43:36;;;;;;;1.2;0.8;;;;;;;9.55;66.26172;949.5825;;;;
2020/02/25 03:46:01;;;;;;;1.3;1;;;;;;;9.48;66.1709;949.5998;;;;
2020/02/25 03:48:26;;;;;;;1.5;0.9;;;;;;;9.48;66.41211;949.5664;;;;
2020/02/25 03:50:51;;;;;;;1.8;1.1;;;;;;;9.48;66.58496;949.5513;;;;
2020/02/25 03:53:17;;;;;;;1.5;1;;;;;;;9.51;66.39258;949.5585;;;;
2020/02/25 03:55:42;;;;;;;1;0.9;;;;;;;9.44;67.00293;949.5914;;;;
2020/02/25 03:58:08;;;;;;;1.4;1;;;;;;;9.56;66.34375;949.5947;;;;
2020/02/25 04:02:28;;;;;;;1.2;1;;;;;;;9.47;66.77734;949.5396;;;;
2020/02/25 04:04:53;;;;;;;1.4;1.2;;;;;;;9.5;67.22949;949.6325;;;;
2020/02/25 04:07:19;;;;;;;1.6;1.1;;;;;;;9.63;66.50293;949.617;;;;
2020/02/25 04:09:43;;;;;;;3;1.2;;;;;;;9.53;67.28125;949.6238;;;;
2020/02/25 04:12:09;;;;;;;2.5;1.3;;;;;;;9.58;66.3252;949.6283;;;;
2020/02/25 04:14:34;;;;;;;1.5;1.1;;;;;;;9.62;66.43359;949.6569;;;;
2020/02/25 04:16:59;;;;;;;1.3;1.2;;;;;;;9.69;65.81348;949.6356;;;;
2020/02/25 04:19:24;;;;;;;2.3;1.3;;;;;;;9.65;66.73633;949.6595;;;;
2020/02/25 04:21:49;;;;;;;2;1.2;;;;;;;9.66;66.07227;949.6238;;;;
2020/02/25 04:24:14;;;;;;;1.4;1.1;;;;;;;9.66;65.84375;949.6481;;;;
2020/02/25 04:26:39;;;;;;;2.3;1.2;;;;;;;9.64;65.8623;949.6174;;;;
2020/02/25 04:29:04;;;;;;;1.5;1;;;;;;;9.6;66.0293;949.6778;;;;
2020/02/25 04:31:29;;;;;;;2.1;1.1;;;;;;;9.62;65.97461;949.6919;;;;
2020/02/25 04:33:54;;;;;;;2.8;1.2;;;;;;;9.64;65.47168;949.6636;;;;
2020/02/25 04:36:20;;;;;;;2.1;1.4;;;;;;;9.63;65.32129;949.6181;;;;
2020/02/25 04:38:45;;;;;;;1.6;1.2;;;;;;;9.56;65.43848;949.6451;;;;
2020/02/25 04:41:10;;;;;;;1.6;1.3;;;;;;;9.54;65.1709;949.6135;;;;
2020/02/25 04:43:35;;;;;;;3.3;1.2;;;;;;;9.54;65.19336;949.6075;;;;
2020/02/25 04:46:00;;;;;;;3.3;1.3;;;;;;;9.54;64.75684;949.5188;;;;
2020/02/25 04:48:25;;;;;;;1.3;1.1;;;;;;;9.48;64.86328;949.5878;;;;
2020/02/25 04:50:50;;;;;;;1.4;1.1;;;;;;;9.49;65.23242;949.5594;;;;
2020/02/25 04:53:15;;;;;;;1.5;1;;;;;;;9.55;64.43652;949.6053;;;;
2020/02/25 04:55:41;;;;;;;2.2;1.2;;;;;;;9.5;64.61328;949.5748;;;;
2020/02/25 04:58:06;;;;;;;1.6;1.2;;;;;;;9.53;63.39941;949.5604;;;;
2020/02/25 05:00:32;;;;;;;1.9;1.1;;;;;;;9.44;64.21387;949.5589;;;;
2020/02/25 05:02:57;;;;;;;1.7;1.1;;;;;;;9.38;63.88281;949.5569;;;;
2020/02/25 05:05:22;;;;;;;3;1.1;;;;;;;9.41;64.02637;949.5815;;;;
2020/02/25 05:07:48;;;;;;;2.4;1.2;;;;;;;9.43;63.4668;949.563;;;;
2020/02/25 05:10:13;;;;;;;2.1;1.2;;;;;;;9.4;63.50879;949.5709;;;;
2020/02/25 05:12:38;;;;;;;2.1;1.3;;;;;;;9.39;63.64355;949.5043;;;;
2020/02/25 05:15:03;;;;;;;3.6;1.3;;;;;;;9.41;62.6377;949.5489;;;;
2020/02/25 05:17:29;;;;;;;1.7;1.3;;;;;;;9.57;61.71777;949.5231;;;;
2020/02/25 05:19:54;;;;;;;3.4;1.2;;;;;;;9.54;61.8877;949.4947;;;;
2020/02/25 05:22:19;;;;;;;3.2;1.2;;;;;;;9.55;62.05957;949.476;;;;
2020/02/25 05:24:44;;;;;;;1.3;1.1;;;;;;;9.41;63.07227;949.4465;;;;
2020/02/25 05:27:09;;;;;;;1.9;1.3;;;;;;;9.39;62.79395;949.3596;;;;
2020/02/25 05:29:34;;;;;;;2;1.2;;;;;;;9.49;61.36328;949.3439;;;;
2020/02/25 05:31:59;;;;;;;2.3;1.3;;;;;;;9.45;62.11328;949.2759;;;;
2020/02/25 05:34:24;;;;;;;1.6;1.3;;;;;;;9.45;61.29004;949.2941;;;;
2020/02/25 05:36:49;;;;;;;2.4;1.3;;;;;;;9.45;61.33398;949.3808;;;;
2020/02/25 05:39:14;;;;;;;2.8;1.2;;;;;;;9.48;60.7998;949.3528;;;;
2020/02/25 05:41:39;;;;;;;1.9;1.3;;;;;;;9.46;60.45215;949.3738;;;;
2020/02/25 05:44:05;;;;;;;1.4;1.2;;;;;;;9.48;60.4209;949.3943;;;;
2020/02/25 05:46:30;;;;;;;1.3;1;;;;;;;9.38;60.52148;949.4414;;;;
2020/02/25 05:48:55;;;;;;;2.6;1.2;;;;;;;9.43;60.19531;949.4012;;;;
2020/02/25 05:51:20;;;;;;;1.5;1.1;;;;;;;9.35;60.64355;949.4314;;;;
2020/02/25 05:53:45;;;;;;;2.1;1.3;;;;;;;9.35;60.27539;949.3697;;;;
2020/02/25 05:56:10;;;;;;;1.7;1.2;;;;;;;9.35;59.75879;949.3802;;;;
2020/02/25 05:58:35;;;;;;;2.7;1.4;;;;;;;9.39;58.86914;949.3049;;;;
2020/02/25 06:01:00;;;;;;;1.8;1.2;;;;;;;9.42;57.57617;949.3083;;;;
2020/02/25 06:03:25;;;;;;;2.3;1.4;;;;;;;9.35;58.1748;949.2615;;;;
2020/02/25 06:05:51;;;;;;;1.7;1.3;;;;;;;9.34;58.20703;949.2958;;;;
2020/02/25 06:08:16;;;;;;;1.6;1.3;;;;;;;9.38;58.22559;949.296;;;;
2020/02/25 06:10:41;;;;;;;1.8;1.2;;;;;;;9.43;57.72656;949.3312;;;;
2020/02/25 06:13:07;;;;;;;2.3;1.4;;;;;;;9.31;56.87402;949.3094;;;;
2020/02/25 06:15:32;;;;;;;1.6;1.1;;;;;;;9.3;56.16016;949.3943;;;;
2020/02/25 06:17:57;;;;;;;1.8;1.2;;;;;;;9.35;55.85645;949.3656;;;;
2020/02/25 06:20:23;;;;;;;2.1;1.3;;;;;;;9.36;55.58301;949.3155;;;;
2020/02/25 06:22:48;;;;;;;2.4;1.4;;;;;;;9.36;55.12305;949.3049;;;;
2020/02/25 06:25:13;;;;;;;1.7;1.3;;;;;;;9.38;53.97949;949.1569;;;;
2020/02/25 06:27:39;;;;;;;1.9;1.3;;;;;;;9.37;54.73438;949.2504;;;;
2020/02/25 06:30:04;;;;;;;2.4;1.4;;;;;;;9.4;54.02637;949.2222;;;;
2020/02/25 06:32:29;;;;;;;3.5;1.3;;;;;;;9.35;53.49219;949.2648;;;;
2020/02/25 06:34:54;;;;;;;3.6;1.6;;;;;;;9.35;53.59668;949.2623;;;;
2020/02/25 06:37:20;;;;;;;1.9;1.4;;;;;;;9.34;53.7207;949.2291;;;;
2020/02/25 06:39:45;;;;;;;2.4;1.4;;;;;;;9.31;53.01758;949.2134;;;;
2020/02/25 06:42:10;;;;;;;1.8;1.3;;;;;;;9.36;52.50684;949.3276;;;;
2020/02/25 06:44:35;;;;;;;1.9;1.2;;;;;;;9.28;53.04883;949.3448;;;;
2020/02/25 06:47:00;;;;;;;2.2;1.6;;;;;;;9.32;52.21484;949.2833;;;;
2020/02/25 06:49:25;;;;;;;2.2;1.5;;;;;;;9.28;52.54297;949.2921;;;;
2020/02/25 06:51:51;;;;;;;3.2;2.2;;;;;;;9.33;52.69727;949.2726;;;;
2020/02/25 06:54:16;;;;;;;1.6;1.3;;;;;;;9.28;52.01465;949.2286;;;;
2020/02/25 06:56:41;;;;;;;1.9;1.4;;;;;;;9.27;52.2666;949.2051;;;;
2020/02/25 06:59:06;;;;;;;3.1;1.6;;;;;;;9.27;52.2666;949.1349;;;;
2020/02/25 07:01:32;;;;;;;2.3;1.5;;;;;;;9.29;52.55566;949.2213;;;;
2020/02/25 07:03:58;;;;;;;4.3;1.8;;;;;;;9.27;52.63379;949.1975;;;;
2020/02/25 07:06:23;;;;;;;2.8;1.5;;;;;;;9.34;51.28809;949.2152;;;;
2020/02/25 07:08:48;;;;;;;3.7;1.6;;;;;;;9.33;51.28711;949.1523;;;;
2020/02/25 07:11:14;;;;;;;2.2;1.4;;;;;;;9.37;52.08301;949.2048;;;;
2020/02/25 07:13:39;;;;;;;2.4;1.6;;;;;;;9.34;51.72266;949.2202;;;;
2020/02/25 07:16:04;;;;;;;2.3;1.6;;;;;;;9.41;51.45703;949.1904;;;;
2020/02/25 07:21:02;;;;;;;3.6;1.5;;;;;;;9.4;51.61719;949.2368;;;;
2020/02/25 07:23:27;;;;;;;2.7;1.5;;;;;;;9.42;51.12402;949.3538;;;;
2020/02/25 07:25:57;;;;;;;3.5;1.6;;;;;;;9.52;51.76855;949.3481;;;;
2020/02/25 07:28:10;;;;;;;3.9;1.6;;;;;;;9.42;51.91602;949.3139;;;;
2020/02/25 07:30:35;;;;;;;3.5;1.9;;;;;;;9.42;51.58496;949.2378;;;;
2020/02/25 07:33:00;;;;;;;2.4;1.7;;;;;;;9.38;51.43066;949.1845;;;;
2020/02/25 07:35:25;;;;;;;4.2;1.8;;;;;;;9.35;51.16406;949.1291;;;;
2020/02/25 07:37:50;;;;;;;2.4;1.8;;;;;;;9.48;51.4873;949.1883;;;;
2020/02/25 07:40:16;;;;;;;3.5;1.8;;;;;;;9.44;51.00098;949.18;;;;
2020/02/25 07:42:41;;;;;;;2.6;1.9;;;;;;;9.43;52.18164;949.1166;;;;
2020/02/25 07:45:07;;;;;;;2.7;1.8;;;;;;;9.44;51.46094;949.1231;;;;
2020/02/25 07:47:32;;;;;;;4.5;2;;;;;;;9.48;51.62598;949.0859;;;;
2020/02/25 07:49:58;;;;;;;3;2;;;;;;;9.62;52.22852;949.1331;;;;
2020/02/25 07:52:23;;;;;;;2.2;1.6;;;;;;;9.56;51.11816;948.9969;;;;
2020/02/25 07:54:48;;;;;;;3.9;1.9;;;;;;;9.52;51.51563;949.0635;;;;
2020/02/25 07:57:13;;;;;;;2.6;1.8;;;;;;;9.63;51.32227;949.0062;;;;
2020/02/25 07:59:38;;;;;;;2.7;2;;;;;;;9.72;51.12598;948.9473;;;;
2020/02/25 08:02:03;;;;;;;3;1.9;;;;;;;9.7;51.23926;948.9742;;;;
2020/02/25 08:04:29;;;;;;;2.9;1.6;;;;;;;9.76;50.44141;948.9786;;;;
2020/02/25 08:06:54;;;;;;;3.1;1.6;;;;;;;9.79;49.81348;948.8835;;;;
2020/02/25 08:09:19;;;;;;;4.8;2;;;;;;;9.89;50.42285;948.8675;;;;
2020/02/25 08:11:44;;;;;;;3.3;1.8;;;;;;;10.01;50.81641;948.8053;;;;
2020/02/25 08:14:10;;;;;;;2.3;1.8;;;;;;;9.97;49.85742;948.7158;;;;
2020/02/25 08:16:35;;;;;;;3.1;1.8;;;;;;;10.08;49.82324;948.5858;;;;
2020/02/25 08:19:00;;;;;;;3.9;2;;;;;;;10.12;48.66699;948.6772;;;;
2020/02/25 08:21:25;;;;;;;2.7;1.9;;;;;;;10.18;49.4209;948.6163;;;;
2020/02/25 08:23:51;;;;;;;2.6;1.9;;;;;;;10.28;48.60449;948.5883;;;;
2020/02/25 08:26:16;;;;;;;2.4;1.8;;;;;;;10.25;49.70508;948.5903;;;;
2020/02/25 08:28:41;;;;;;;2.8;1.9;;;;;;;10.32;48.65527;948.55;;;;
2020/02/25 08:31:06;;;;;;;2.7;1.9;;;;;;;10.33;48.49512;948.5283;;;;
2020/02/25 08:33:32;;;;;;;2.3;1.8;;;;;;;10.41;48.13574;948.4666;;;;
2020/02/25 08:35:57;;;;;;;2.6;1.8;;;;;;;10.48;48.16699;948.4079;;;;
2020/02/25 08:38:22;;;;;;;2.4;1.8;;;;;;;10.44;47.38086;948.377;;;;
2020/02/25 08:40:47;;;;;;;4.4;2.1;;;;;;;10.46;47.13965;948.3956;;;;
2020/02/25 08:43:13;;;;;;;3.5;2.3;;;;;;;10.6;47.85742;948.3144;;;;
2020/02/25 08:45:38;;;;;;;2.8;2;;;;;;;10.54;46.99902;948.3396;;;;
2020/02/25 08:48:03;;;;;;;4.4;2;;;;;;;10.56;46.59961;948.1936;;;;
2020/02/25 08:50:28;;;;;;;3.5;1.9;;;;;;;10.57;46.8877;948.2459;;;;
2020/02/25 08:52:53;;;;;;;3.3;2;;;;;;;10.6;47.82422;948.3078;;;;
2020/02/25 08:55:19;;;;;;;2.6;2;;;;;;;10.68;47.31543;948.2852;;;;
2020/02/25 08:57:44;;;;;;;3.2;1.8;;;;;;;10.65;47.21875;948.2598;;;;
2020/02/25 09:00:09;;;;;;;3.2;1.9;;;;;;;10.8;47.28027;948.1895;;;;
2020/02/25 09:02:34;;;;;;;2.9;2;;;;;;;10.81;47.29395;948.2679;;;;
2020/02/25 09:05:00;;;;;;;3;2;;;;;;;10.82;47.47949;948.2784;;;;
2020/02/25 09:07:25;;;;;;;3.5;2.2;;;;;;;10.87;47.15137;948.1464;;;;
2020/02/25 09:09:50;;;;;;;3.5;2.1;;;;;;;10.8;48.15625;948.1536;;;;
2020/02/25 09:12:15;;;;;;;3.4;2;;;;;;;10.96;47.69043;948.1145;;;;
2020/02/25 09:14:40;;;;;;;4.2;2;;;;;;;10.86;47.7832;948.0683;;;;
2020/02/25 09:17:06;;;;;;;3.1;2.2;;;;;;;10.99;47.99316;948.0793;;;;
2020/02/25 09:19:31;;;;;;;2.9;2.1;;;;;;;11.03;47.7207;948.1291;;;;
2020/02/25 09:21:57;;;;;;;3.8;2.1;;;;;;;11;48.47949;948.2644;;;;
2020/02/25 09:24:34;;;;;;;2.7;2;;;;;;;11.04;48.62109;948.1202;;;;
2020/02/25 09:26:47;;;;;;;4.1;2.7;;;;;;;11.15;48.17285;948.1223;;;;
2020/02/25 09:29:12;;;;;;;4.3;2.2;;;;;;;11.31;48.55957;948.1221;;;;
2020/02/25 09:31:38;;;;;;;4;2.9;;;;;;;11.32;48.20313;948.0877;;;;
2020/02/25 09:34:03;;;;;;;5.5;4.3;;;;;;;11.23;48.30859;947.9698;;;;
2020/02/25 09:36:28;;;;;;;4.5;3.1;;;;;;;11.27;48.24316;947.968;;;;
2020/02/25 09:38:53;;;;;;;3.6;2.7;;;;;;;11.49;47.87695;947.8483;;;;
2020/02/25 09:41:18;;;;;;;3.8;2.5;;;;;;;11.44;47.92773;947.9219;;;;
2020/02/25 09:43:44;;;;;;;4.2;2.8;;;;;;;11.35;48.11426;947.8666;;;;
2020/02/25 09:46:09;;;;;;;4.4;2.7;;;;;;;11.26;48.34668;947.8677;;;;
2020/02/25 09:48:34;;;;;;;4.4;2.6;;;;;;;11.21;48.58301;947.8555;;;;
2020/02/25 09:51:00;;;;;;;4.7;2.7;;;;;;;11.38;48.80957;947.9309;;;;
2020/02/25 09:53:25;;;;;;;3.3;2.4;;;;;;;11.48;49.02734;947.7659;;;;
2020/02/25 09:55:50;;;;;;;4.4;2.6;;;;;;;11.38;49.39746;947.7964;;;;
2020/02/25 09:58:16;;;;;;;4.2;2.8;;;;;;;11.61;49.45801;947.6953;;;;
2020/02/25 10:00:41;;;;;;;4.2;3;;;;;;;11.66;49.88965;947.7708;;;;
2020/02/25 10:03:06;;;;;;;3.4;2.8;;;;;;;11.53;50.14063;947.6465;;;;
2020/02/25 10:05:32;;;;;;;3.8;2.6;;;;;;;11.63;50.75195;947.6085;;;;
2020/02/25 10:07:57;;;;;;;3.8;2.5;;;;;;;11.48;50.91992;947.6605;;;;
2020/02/25 10:10:22;;;;;;;4.1;2.1;;;;;;;11.52;51.89453;947.592;;;;
2020/02/25 10:12:47;;;;;;;3.1;2.3;;;;;;;11.57;51.3916;947.5647;;;;
2020/02/25 10:15:12;;;;;;;4.4;3.3;;;;;;;11.68;51.84277;947.597;;;;
2020/02/25 10:17:38;;;;;;;4;2.4;;;;;;;11.63;52.63281;947.5824;;;;
2020/02/25 10:20:03;;;;;;;3.7;2.7;;;;;;;11.58;52.35059;947.5608;;;;
2020/02/25 10:22:28;;;;;;;3.4;2.3;;;;;;;11.65;52.82031;947.5351;;;;
2020/02/25 10:24:53;;;;;;;3.2;2.4;;;;;;;11.61;52.6875;947.6277;;;;
2020/02/25 10:27:18;;;;;;;3.2;2.4;;;;;;;11.62;52.88672;947.6682;;;;
2020/02/25 10:29:43;;;;;;;3.2;2.5;;;;;;;11.71;52.77051;947.6172;;;;
2020/02/25 10:32:08;;;;;;;3.6;2.7;;;;;;;11.64;52.83105;947.5107;;;;
2020/02/25 10:34:33;;;;;;;3.2;2.5;;;;;;;11.62;52.91992;947.528;;;;
2020/02/25 10:36:58;;;;;;;3.9;2.6;;;;;;;11.62;52.1123;947.5605;;;;
2020/02/25 10:39:23;;;;;;;3.2;2.5;;;;;;;11.71;52.21582;947.4637;;;;
2020/02/25 10:41:49;;;;;;;3.8;2.3;;;;;;;11.79;52.2832;947.5034;;;;
2020/02/25 10:44:14;;;;;;;3.6;2.6;;;;;;;11.67;51.92285;947.4143;;;;
2020/02/25 10:46:40;;;;;;;4.1;2.4;;;;;;;11.58;52.33887;947.4327;;;;
2020/02/25 10:49:05;;;;;;;3.6;2.8;;;;;;;11.63;52.37988;947.3228;;;;
2020/02/25 10:51:30;;;;;;;4.4;2.9;;;;;;;11.57;53.14551;947.3674;;;;
2020/02/25 10:53:55;;;;;;;4.8;2.7;;;;;;;11.68;52.57031;947.3301;;;;
2020/02/25 10:56:21;;;;;;;3.6;2.5;;;;;;;11.79;53.29883;947.4414;;;;
2020/02/25 10:58:46;;;;;;;2.9;2.3;;;;;;;11.76;53.52637;947.4897;;;;
2020/02/25 11:01:12;;;;;;;4;2.6;;;;;;;11.81;53.46387;947.4361;;;;
2020/02/25 11:03:37;;;;;;;3.6;2.5;;;;;;;11.74;54.75781;947.4498;;;;
2020/02/25 11:06:02;;;;;;;5.2;3.9;;;;;;;11.99;54.74414;947.4109;;;;
2020/02/25 11:08:27;;;;;;;4.7;3.6;;;;;;;12.2;55.6709;947.4308;;;;
2020/02/25 11:10:52;;;;;;;4.1;2.7;;;;;;;12.27;56.50098;947.2598;;;;
2020/02/25 11:13:18;;;;;;;3.1;2.4;;;;;;;12.33;55.80371;947.3345;;;;
2020/02/25 11:15:43;;;;;;;3.6;3.1;;;;;;;12.39;56.48145;947.3683;;;;
2020/02/25 11:18:08;;;;;;;3.3;2.1;;;;;;;12.45;56.92871;947.277;;;;
2020/02/25 11:20:34;;;;;;;3.3;2.4;;;;;;;12.31;57.38477;947.3352;;;;
2020/02/25 11:22:59;;;;;;;2.9;2.2;;;;;;;12.01;58.91406;947.2436;;;;
2020/02/25 11:25:24;;;;;;;2.8;2;;;;;;;12.2;58.375;947.2184;;;;
2020/02/25 11:27:50;;;;;;;3.8;2.2;;;;;;;11.86;60.72949;947.2829;;;;
2020/02/25 11:30:15;;;;;;;3.8;2.3;;;;;;;11.83;62.30762;947.2615;;;;
2020/02/25 11:32:40;;;;;;;2.8;2.1;;;;;;;11.71;62.87793;947.0402;;;;
2020/02/25 11:35:05;;;;;;;3.4;2.2;;;;;;;11.75;62.98828;947.092;;;;
2020/02/25 11:37:30;;;;;;;3;1.8;;;;;;;11.69;62.6084;946.8853;;;;
2020/02/25 11:39:55;;;;;;;2.1;1.7;;;;;;;11.84;62.4707;946.9592;;;;
2020/02/25 11:42:20;;;;;;;3.4;1.7;;;;;;;11.82;62.62793;947.0879;;;;
2020/02/25 11:44:46;;;;;;;3.1;1.7;;;;;;;11.88;62.19824;946.9825;;;;
2020/02/25 11:47:11;;;;;;;2.6;1.6;;;;;;;11.5;63.36719;947.1213;;;;
2020/02/25 11:49:36;;;;;;;2.5;1.6;;;;;;;11.56;63.76758;947.0076;;;;
2020/02/25 11:52:02;;;;;;;2.1;1.4;;;;;;;11.66;63.87402;946.945;;;;
2020/02/25 11:54:27;;;;;;;1.6;1;;;;;;;11.49;64.4375;946.7969;;;;
2020/02/25 11:56:52;;;;;;;1.9;1;;;;;;;11.38;65.13574;946.874;;;;
2020/02/25 11:59:17;;;;;;;0.9;0.8;;;;;;;11.49;65.66113;946.7438;;;;
2020/02/25 12:01:43;;;;;;;2.3;1.1;;;;;;;11.77;65.01074;946.7175;;;;
2020/02/25 12:04:08;;;;;;;2;1.1;;;;;;;11.63;65.01367;946.7467;;;;
2020/02/25 12:06:33;;;;;;;1.7;0.9;;;;;;;11.57;64.75;946.8729;;;;
2020/02/25 12:08:58;;;;;;;2.1;1;;;;;;;10.98;66.59766;946.9074;;;;
2020/02/25 12:11:24;;;;;;;1.3;0.8;;;;;;;11.23;66.25586;946.8428;;;;
2020/02/25 12:13:49;;;;;;;1.8;0.8;;;;;;;11.28;66.98926;946.9031;;;;
2020/02/25 12:16:14;;;;;;;1.1;0.8;;;;;;;11.02;68.39063;946.8159;;;;
2020/02/25 12:18:39;;;;;;;1.3;0.9;;;;;;;11.12;68.75;946.7927;;;;
2020/02/25 12:21:04;;;;;;;0.9;0.8;;;;;;;10.8;70.93457;946.6497;;;;
2020/02/25 12:23:29;;;;;;;1.9;0.9;;;;;;;10.85;69.97559;946.4724;;;;
2020/02/25 12:25:54;;;;;;;1.9;0.8;;;;;;;10.82;70.44238;946.3812;;;;
2020/02/25 12:28:20;;;;;;;1.1;0.9;;;;;;;10.72;70.4834;946.4632;;;;
2020/02/25 12:30:45;;;;;;;1;0.8;;;;;;;10.73;70.55371;946.4436;;;;
2020/02/25 12:33:10;;;;;;;1;0.7;;;;;;;10.68;70.69629;946.4138;;;;
2020/02/25 12:35:36;;;;;;;0.6;0.6;;;;;;;10.68;70.03906;946.5251;;;;
2020/02/25 12:38:01;;;;;;;1;0.7;;;;;;;10.67;70.58984;946.6613;;;;
2020/02/25 12:40:26;;;;;;;0.6;0.6;;;;;;;10.64;70.7002;946.5033;;;;
2020/02/25 12:42:51;;;;;;;1.2;0.6;;;;;;;10.87;69.51758;946.462;;;;
2020/02/25 12:45:16;;;;;;;1.6;0.9;;;;;;;10.85;69.3291;946.3739;;;;
2020/02/25 12:47:41;;;;;;;2;0.8;;;;;;;10.8;69.9209;946.4525;;;;
2020/02/25 12:50:06;;;;;;;0.6;0.6;;;;;;;10.37;71.16113;946.3801;;;;
2020/02/25 12:52:32;;;;;;;0.9;0.6;;;;;;;10.3;71.79492;946.4186;;;;
2020/02/25 12:54:57;;;;;;;1.1;0.7;;;;;;;10.37;72.0957;946.3759;;;;
2020/02/25 12:57:23;;;;;;;1.2;0.7;;;;;;;10.29;72.24219;946.3535;;;;
2020/02/25 12:59:48;;;;;;;0.9;0.7;;;;;;;10.21;72.95313;946.3272;;;;
2020/02/25 13:02:13;;;;;;;1.1;0.6;;;;;;;10.24;74.16504;946.3915;;;;
2020/02/25 13:04:38;;;;;;;0.7;0.7;;;;;;;10.18;74.44336;946.3834;;;;
2020/02/25 13:07:03;;;;;;;2.1;0.7;;;;;;;10.08;74.79492;946.2819;;;;
2020/02/25 13:09:28;;;;;;;1.9;0.7;;;;;;;9.99;76.88086;946.3492;;;;
2020/02/25 13:11:53;;;;;;;2;0.8;;;;;;;10.01;78.44922;946.377;;;;
2020/02/25 13:14:18;;;;;;;1.3;0.9;;;;;;;10.03;78.24316;946.3551;;;;
2020/02/25 13:16:44;;;;;;;1.6;0.8;;;;;;;9.88;79.94238;946.3144;;;;
2020/02/25 13:19:09;;;;;;;1.1;0.9;;;;;;;9.67;79.02832;946.3933;;;;
2020/02/25 13:21:35;;;;;;;1.2;0.9;;;;;;;9.78;79.24512;946.325;;;;
2020/02/25 13:24:00;;;;;;;2.5;1.1;;;;;;;9.75;80.55957;946.298;;;;
2020/02/25 13:26:26;;;;;;;1.7;1;;;;;;;9.84;79.96777;946.2353;;;;
2020/02/25 13:28:51;;;;;;;1.1;0.9;;;;;;;9.82;79.49414;946.2029;;;;
2020/02/25 13:31:17;;;;;;;1.4;1;;;;;;;9.56;80.00781;946.1295;;;;
2020/02/25 13:33:42;;;;;;;1.3;0.9;;;;;;;9.58;79.04785;946.1564;;;;
2020/02/25 13:36:08;;;;;;;1.3;1.1;;;;;;;9.78;79.45215;945.9799;;;;
2020/02/25 13:38:33;;;;;;;1.5;1.2;;;;;;;10.1;79.48633;946.0058;;;;
2020/02/25 13:40:58;;;;;;;1.3;0.9;;;;;;;9.99;78.45508;945.9939;;;;
2020/02/25 13:43:23;;;;;;;1.4;0.9;;;;;;;9.9;78.59961;945.9684;;;;
2020/02/25 13:45:48;;;;;;;1.6;1;;;;;;;9.96;78.47363;946.1042;;;;
2020/02/25 13:48:14;;;;;;;1;0.9;;;;;;;9.91;77.78613;945.9881;;;;
2020/02/25 13:50:39;;;;;;;1.6;0.9;;;;;;;9.77;77.1416;945.9303;;;;
2020/02/25 13:53:04;;;;;;;0.8;0.8;;;;;;;9.74;77.27246;946.0239;;;;
2020/02/25 13:55:29;;;;;;;1;0.9;;;;;;;9.7;78.62109;946.0581;;;;
2020/02/25 13:57:54;;;;;;;0.8;0.8;;;;;;;9.77;77.56738;946.1263;;;;
2020/02/25 14:00:19;;;;;;;0.9;0.8;;;;;;;9.83;77.92188;946.0076;;;;
2020/02/25 14:02:44;;;;;;;1;0.8;;;;;;;9.8;77.70898;946.0173;;;;
2020/02/25 14:05:10;;;;;;;1.4;0.9;;;;;;;9.86;78.54785;946.0272;;;;
2020/02/25 14:07:35;;;;;;;1.1;0.8;;;;;;;9.77;77.84375;945.949;;;;
2020/02/25 14:10:00;;;;;;;1.1;0.9;;;;;;;9.87;77.36523;945.9679;;;;
2020/02/25 14:12:26;;;;;;;1.1;0.9;;;;;;;10.05;78.43262;946.0035;;;;
2020/02/25 14:14:51;;;;;;;0.8;0.7;;;;;;;9.93;76.92871;945.9456;;;;
2020/02/25 14:17:16;;;;;;;1.4;0.8;;;;;;;9.87;76.51563;945.9825;;;;
2020/02/25 14:19:41;;;;;;;1.2;0.9;;;;;;;10.01;77.71289;946.0254;;;;
2020/02/25 14:22:06;;;;;;;0.6;0.6;;;;;;;9.79;78.61523;945.9426;;;;
2020/02/25 14:24:31;;;;;;;0.7;0.7;;;;;;;9.71;77.62402;945.9556;;;;
2020/02/25 14:26:57;;;;;;;0.7;0.7;;;;;;;9.85;78.37305;945.9612;;;;
2020/02/25 14:29:22;;;;;;;0.8;0.7;;;;;;;9.6;79.60254;945.9969;;;;